Vers la page d'accueil de NAV CANADA Ouverture d'une nouvelle session Chercher sur le site AWWS Clause de non-reponsabilité To the equivalent English page Trucs et astuces FAQ Quoi de neuf sur le site Vers la section Prévisions et observations / NOTAM Vers le site web pour <<Déposer un plan de vol>> Publications et liens importants Mise à jour du profil d'usager Numéros de téléphone des FIC Mes données météo personnelles Données météo de route Données météo régionales Données météo locales Vers la section Prévisions et observations / NOTAM
Requête générée le 2019/02/18 à 14:29:14 UTC. L'information météorologique disponible à ce moment est affichée.

METAR/TAF

Si vous notez des différences entre le METAR/TAF codé et le METAR/TAF en langage clair, veuillez utiliser la version codée. Les bulletins LWIS ne sont pas décodés en langage clair.

OTTAWA/MACDONALD-CARTIER INTL/ON    

METAR CYOW 181400Z 01011KT 15SM SCT080 BKN094 M11/M16 A3001 RMK AC3AC4 SLP173=
METAR
LIEU
CYOW - OTTAWA/MACDONALD-CARTIER INTL/ON
DATE - HEURE
18 FEVRIER 2019 - 1400 UTC
VENT
10 VRAIS @ 11  NOEUDS
VISIBILITE
15 MILLES TERR.
PORTEE VISUELLE DE PISTE
METEO
NEBULOSITE
NUAGES EPARS (3/8 - 4/8) 8000  PI
NUAGES FRAGMENTES (5/8 - 7/8) 9400  PI
TEMP / PT DE ROSEE
-11 C / -16 C
ALTIMETRE
30.01 PO HG
TEMPS RECENT
CISAILLEMENT

METAR CYOW 181300Z 04010KT 15SM BKN075 BKN093 M12/M16 A2999 RMK AC5AC2 SLP166=
METAR
LIEU
CYOW - OTTAWA/MACDONALD-CARTIER INTL/ON
DATE - HEURE
18 FEVRIER 2019 - 1300 UTC
VENT
40 VRAIS @ 10  NOEUDS
VISIBILITE
15 MILLES TERR.
PORTEE VISUELLE DE PISTE
METEO
NEBULOSITE
NUAGES FRAGMENTES (5/8 - 7/8) 7500  PI
NUAGES FRAGMENTES (5/8 - 7/8) 9300  PI
TEMP / PT DE ROSEE
-12 C / -16 C
ALTIMETRE
29.99 PO HG
TEMPS RECENT
CISAILLEMENT

METAR CYOW 181200Z 03010KT 15SM BKN078 OVC100 M12/M16 A2997 RMK AC6AC2 SLP160=
METAR
LIEU
CYOW - OTTAWA/MACDONALD-CARTIER INTL/ON
DATE - HEURE
18 FEVRIER 2019 - 1200 UTC
VENT
30 VRAIS @ 10  NOEUDS
VISIBILITE
15 MILLES TERR.
PORTEE VISUELLE DE PISTE
METEO
NEBULOSITE
NUAGES FRAGMENTES (5/8 - 7/8) 7800  PI
CIEL COUVERT 10000  PI
TEMP / PT DE ROSEE
-12 C / -16 C
ALTIMETRE
29.97 PO HG
TEMPS RECENT
CISAILLEMENT

TAF CYOW 181139Z 1812/1912 03010KT P6SM BKN080 OVC100 TEMPO 1812/1815 P6SM -SHSN FM181500 33012KT P6SM BKN130 BECMG 1820/1822 SCT150 FM190000 30012KT P6SM FEW040 BECMG 1908/1910 28006KT RMK NXT FCST BY 181500Z=
TAF
LIEU

CYOW - OTTAWA/MACDONALD-CARTIER INTL/ON
VALIDITE [UTC]
18 FEB - 1139 à
19 FEB - 1200
 
PERIODES
[UTC]
VENT
[DEGRES VRAIS]
VISIBILITE
[MILLES TERR.]
METEO
NEBULOSITE
[PIEDS AGL]
 
18 FEB - 1200 à
18 FEB - 1500
30 @ 10 NOEUDS
6+
---
8000 FRAGMENTES
10000 CIEL COUVERT
CHANGEMENTS TEMPORAIRES
18 FEB - 1200 à
18 FEB - 1500
 
6+
AVERSE DE NEIGE FAIBLE
 
 
18 FEB - 1500 à
19 FEB - 0000
330 @ 12 NOEUDS
6+
---
13000 FRAGMENTES
CHANGEMENTS GRADUELS
18 FEB - 2000 à
18 FEB - 2200
 
 
 
15000 EPARS
 
19 FEB - 0000 à
19 FEB - 1200
300 @ 12 NOEUDS
6+
---
4000 QUELQUES
CHANGEMENTS GRADUELS
19 FEB - 0800 à
19 FEB - 1000
280 @ 6 NOEUDS
 
 
 
REMARQUES
LA PREVISION SUIVANTE SERA EMISE POUR 1500 UTC LE 18


Votre heure Heure UTC
Données météorologiques fournies par Environnement Canada et NAV CANADA